createdAt,value
2018-08-04T00:00:42.273Z,23.00
2018-08-04T00:03:10.204Z,23.00
2018-08-04T00:05:38.195Z,23.02
2018-08-04T00:08:06.137Z,23.01
2018-08-04T00:10:34.041Z,22.89
2018-08-04T00:13:01.954Z,22.92
2018-08-04T00:15:29.893Z,23.00
2018-08-04T00:17:57.859Z,22.98
2018-08-04T00:20:25.766Z,22.95
2018-08-04T00:22:53.632Z,23.00
2018-08-04T00:25:21.488Z,22.93
2018-08-04T00:27:49.351Z,22.88
2018-08-04T00:30:17.231Z,22.86
2018-08-04T00:32:45.137Z,22.74
2018-08-04T00:35:13.041Z,22.66
2018-08-04T00:37:40.975Z,22.64
2018-08-04T00:40:10.534Z,22.68
2018-08-04T00:42:38.458Z,22.64
2018-08-04T00:45:06.340Z,22.60
2018-08-04T00:47:34.584Z,22.61
2018-08-04T00:50:02.718Z,22.72
2018-08-04T00:52:30.621Z,22.74
2018-08-04T00:54:58.490Z,22.72
2018-08-04T00:57:26.445Z,22.72
2018-08-04T00:59:54.317Z,22.80
2018-08-04T01:02:22.213Z,22.82
2018-08-04T01:04:50.545Z,22.80
2018-08-04T01:07:18.409Z,22.78
2018-08-04T01:09:46.281Z,22.63
2018-08-04T01:12:14.170Z,22.54
2018-08-04T01:14:42.041Z,22.63
2018-08-04T01:17:09.989Z,22.73
2018-08-04T01:19:37.844Z,22.86
2018-08-04T01:22:05.827Z,22.88
2018-08-04T01:24:33.715Z,23.04
2018-08-04T01:27:01.557Z,23.00
2018-08-04T01:29:29.477Z,23.10
2018-08-04T01:31:57.373Z,23.12
2018-08-04T01:34:25.289Z,23.15
2018-08-04T01:36:53.143Z,23.18
2018-08-04T01:39:21.006Z,23.15
2018-08-04T01:41:48.934Z,23.30
2018-08-04T01:44:16.765Z,23.49
2018-08-04T01:46:44.876Z,23.55
2018-08-04T01:49:12.783Z,23.53
2018-08-04T01:51:40.667Z,23.51
2018-08-04T01:54:08.548Z,23.53
2018-08-04T01:56:36.456Z,23.51
2018-08-04T01:59:04.410Z,23.41
2018-08-04T02:01:32.341Z,23.33
2018-08-04T02:04:00.232Z,23.12
2018-08-04T02:06:28.171Z,22.86
2018-08-04T02:08:56.038Z,22.70
2018-08-04T02:11:23.906Z,22.69
2018-08-04T02:13:51.774Z,22.65
2018-08-04T02:16:19.610Z,22.67
2018-08-04T02:18:47.537Z,22.50
2018-08-04T02:21:15.411Z,22.68
2018-08-04T02:23:43.269Z,22.81
2018-08-04T02:26:11.426Z,22.84
2018-08-04T02:28:39.269Z,22.84
2018-08-04T02:31:07.165Z,22.78
2018-08-04T02:33:35.053Z,22.67
2018-08-04T02:36:02.983Z,22.65
2018-08-04T02:38:30.876Z,22.79
2018-08-04T02:40:58.732Z,22.75
2018-08-04T02:43:26.597Z,22.68
2018-08-04T02:45:55.275Z,22.53
2018-08-04T02:48:23.131Z,22.50
2018-08-04T02:50:50.997Z,22.61
2018-08-04T02:53:19.006Z,22.69
2018-08-04T02:55:46.893Z,22.70
2018-08-04T02:58:14.742Z,22.39
2018-08-04T03:08:52.750Z,22.28
2018-08-04T03:11:20.630Z,22.51
2018-08-04T03:13:48.526Z,22.54
2018-08-04T03:16:16.429Z,22.70
2018-08-04T03:18:44.370Z,22.70
2018-08-04T03:21:12.316Z,22.78
2018-08-04T03:23:40.235Z,23.19
2018-08-04T03:26:08.111Z,23.41
2018-08-04T03:28:36.022Z,23.90
2018-08-04T03:31:04.115Z,24.05
2018-08-04T03:33:32.054Z,24.14
2018-08-04T03:35:59.937Z,24.90
2018-08-04T03:38:27.818Z,25.59
2018-08-04T03:40:55.667Z,25.83
2018-08-04T03:43:23.582Z,26.75
2018-08-04T03:45:51.502Z,27.64
2018-08-04T03:48:19.389Z,28.53
2018-08-04T03:50:47.254Z,29.43
2018-08-04T03:53:15.112Z,30.22
2018-08-04T03:55:42.948Z,30.64
2018-08-04T03:58:10.840Z,31.27
2018-08-04T04:00:38.677Z,31.81
2018-08-04T04:03:06.652Z,32.69
2018-08-04T04:05:34.516Z,33.47
2018-08-04T04:08:02.397Z,34.06
2018-08-04T04:10:30.262Z,34.36
2018-08-04T04:12:58.135Z,34.41
2018-08-04T04:15:26.127Z,34.87
2018-08-04T04:17:53.999Z,35.07
2018-08-04T04:20:21.880Z,35.86
2018-08-04T04:22:50.077Z,36.74
2018-08-04T04:25:18.059Z,37.13
2018-08-04T04:27:45.891Z,36.70
2018-08-04T04:30:14.577Z,37.31
2018-08-04T04:32:42.422Z,37.29
2018-08-04T04:35:10.306Z,37.50
2018-08-04T04:37:38.181Z,38.66
2018-08-04T04:40:06.605Z,39.81
2018-08-04T04:42:34.479Z,41.03
2018-08-04T04:45:02.362Z,40.84
2018-08-04T04:47:30.306Z,39.54
2018-08-04T04:49:58.189Z,39.90
2018-08-04T04:52:26.057Z,38.45
2018-08-04T04:54:53.907Z,37.64
2018-08-04T04:57:21.738Z,37.22
2018-08-04T04:59:49.630Z,37.52
2018-08-04T05:02:17.508Z,35.22
2018-08-04T05:04:45.355Z,36.19
2018-08-04T05:07:13.193Z,36.64
2018-08-04T05:09:41.019Z,36.13
2018-08-04T05:12:08.926Z,36.13
2018-08-04T05:14:36.754Z,36.33
2018-08-04T05:17:04.707Z,36.36
2018-08-04T05:19:32.573Z,36.91
2018-08-04T05:22:00.450Z,37.34
2018-08-04T05:24:28.578Z,38.96
2018-08-04T05:26:56.448Z,37.95
2018-08-04T05:29:24.306Z,37.80
2018-08-04T05:31:52.219Z,36.60
2018-08-04T05:34:20.053Z,35.75
2018-08-04T05:36:48.020Z,35.58
2018-08-04T05:39:15.901Z,35.39
2018-08-04T05:41:43.754Z,33.38
2018-08-04T05:44:11.654Z,32.99
2018-08-04T05:46:39.560Z,33.81
2018-08-04T05:49:07.471Z,34.22
2018-08-04T05:51:35.330Z,34.33
2018-08-04T05:54:03.241Z,33.24
2018-08-04T05:56:31.081Z,32.90
2018-08-04T05:58:58.939Z,33.75
2018-08-04T06:01:26.840Z,33.19
2018-08-04T06:03:54.789Z,32.71
2018-08-04T06:06:22.718Z,33.55
2018-08-04T06:08:50.643Z,36.08
2018-08-04T06:11:18.526Z,34.36
2018-08-04T06:13:46.407Z,32.38
2018-08-04T06:16:14.269Z,32.73
2018-08-04T06:18:42.135Z,32.02
2018-08-04T06:21:10.045Z,32.23
2018-08-04T06:23:37.923Z,31.13
2018-08-04T06:26:05.882Z,31.67
2018-08-04T06:28:33.782Z,32.53
2018-08-04T06:31:01.630Z,34.26
2018-08-04T06:33:29.553Z,33.70
2018-08-04T06:35:57.419Z,33.85
2018-08-04T06:38:25.269Z,31.82
2018-08-04T06:40:53.121Z,32.71
2018-08-04T06:43:20.986Z,32.63
2018-08-04T06:45:48.882Z,32.86
2018-08-04T06:48:16.749Z,32.88
2018-08-04T06:50:44.665Z,32.98
2018-08-04T06:53:12.568Z,33.44
2018-08-04T06:55:40.474Z,32.28
2018-08-04T06:58:08.472Z,31.51
2018-08-04T07:00:36.386Z,32.17
2018-08-04T07:03:04.330Z,32.68
2018-08-04T07:05:32.255Z,32.93
2018-08-04T07:08:00.181Z,32.58
2018-08-04T07:10:28.900Z,32.37
2018-08-04T07:12:56.805Z,32.49
2018-08-04T07:15:24.751Z,33.07
2018-08-04T07:17:52.653Z,32.92
2018-08-04T07:20:20.817Z,32.27
2018-08-04T07:22:48.699Z,33.49
2018-08-04T07:25:16.621Z,32.03
2018-08-04T07:27:44.477Z,33.20
2018-08-04T07:30:13.893Z,32.23
2018-08-04T07:32:42.986Z,32.23
2018-08-04T07:35:10.919Z,31.72
2018-08-04T07:37:38.977Z,30.51
2018-08-04T07:40:06.957Z,31.56
2018-08-04T07:42:34.798Z,31.03
2018-08-04T07:45:02.665Z,30.82
2018-08-04T07:47:30.553Z,30.75
2018-08-04T07:49:58.404Z,31.23
2018-08-04T07:52:26.272Z,31.84
2018-08-04T07:54:54.158Z,31.58
2018-08-04T07:57:22.104Z,30.38
2018-08-04T07:59:49.978Z,30.43
2018-08-04T08:02:17.910Z,29.54
2018-08-04T08:04:45.890Z,29.96
2018-08-04T08:07:13.729Z,31.39
2018-08-04T08:09:41.882Z,32.18
2018-08-04T08:12:09.822Z,30.92
2018-08-04T08:14:37.816Z,31.43
2018-08-04T08:17:06.095Z,31.50
2018-08-04T08:19:34.285Z,32.13
2018-08-04T08:22:02.237Z,32.47
2018-08-04T08:24:30.541Z,31.44
2018-08-04T08:26:58.381Z,31.48
2018-08-04T08:29:26.233Z,31.45
2018-08-04T08:31:54.087Z,31.46
2018-08-04T08:34:21.937Z,31.34
2018-08-04T08:36:49.745Z,31.35
2018-08-04T08:39:17.601Z,32.45
2018-08-04T08:41:45.535Z,33.06
2018-08-04T08:44:13.469Z,32.93
2018-08-04T08:46:41.339Z,32.51
2018-08-04T08:49:09.530Z,32.53
2018-08-04T08:51:37.421Z,31.34
2018-08-04T08:54:05.456Z,32.31
2018-08-04T08:56:33.357Z,31.52
2018-08-04T08:59:01.258Z,32.65
2018-08-04T09:01:29.161Z,32.00
2018-08-04T09:03:56.965Z,32.34
2018-08-04T09:06:24.833Z,32.02
2018-08-04T09:08:52.676Z,32.12
2018-08-04T09:11:20.516Z,31.40
2018-08-04T09:13:49.186Z,31.75
2018-08-04T09:16:18.243Z,32.31
2018-08-04T09:18:46.152Z,32.01
2018-08-04T09:21:14.013Z,32.41
2018-08-04T09:23:41.891Z,32.14
2018-08-04T09:26:09.734Z,31.61
2018-08-04T09:28:37.578Z,32.83
2018-08-04T09:31:05.845Z,33.80
2018-08-04T09:33:33.780Z,33.59
2018-08-04T09:36:01.640Z,32.65
2018-08-04T09:38:29.561Z,32.26
2018-08-04T09:40:57.514Z,32.36
2018-08-04T09:43:26.414Z,32.79
2018-08-04T09:45:54.485Z,33.26
2018-08-04T09:48:22.326Z,33.37
2018-08-04T09:50:50.210Z,33.71
2018-08-04T09:53:18.039Z,33.40
2018-08-04T09:55:45.806Z,33.34
2018-08-04T09:58:13.700Z,33.83
2018-08-04T10:00:48.106Z,33.13
2018-08-04T10:03:15.969Z,32.74
2018-08-04T10:05:43.873Z,33.32
2018-08-04T10:08:11.750Z,33.19
2018-08-04T10:10:39.594Z,33.58
2018-08-04T10:13:07.618Z,34.43
2018-08-04T10:15:36.445Z,35.02
2018-08-04T10:18:05.334Z,34.90
2018-08-04T10:20:33.329Z,34.65
2018-08-04T10:23:02.056Z,34.62
2018-08-04T10:25:30.082Z,33.80
2018-08-04T10:27:57.897Z,33.31
2018-08-04T10:30:25.745Z,33.25
2018-08-04T10:32:53.689Z,33.51
2018-08-04T10:35:21.614Z,33.31
2018-08-04T10:37:49.569Z,34.30
2018-08-04T10:40:17.441Z,34.79
2018-08-04T10:42:45.270Z,34.48
2018-08-04T10:45:13.144Z,34.81
2018-08-04T10:47:41.304Z,35.59
2018-08-04T10:50:09.160Z,34.59
2018-08-04T10:52:37.069Z,34.30
2018-08-04T10:55:05.117Z,33.94
2018-08-04T10:57:32.925Z,33.82
2018-08-04T11:00:00.814Z,34.26
2018-08-04T11:02:28.682Z,35.16
2018-08-04T11:04:56.553Z,34.62
2018-08-04T11:07:24.482Z,34.73
2018-08-04T11:09:52.348Z,34.81
2018-08-04T11:12:20.168Z,35.35
2018-08-04T11:14:48.081Z,35.43
2018-08-04T11:17:21.858Z,35.30
2018-08-04T11:19:49.732Z,35.28
2018-08-04T11:22:18.516Z,34.74
2018-08-04T11:24:46.389Z,35.49
2018-08-04T11:27:14.597Z,36.14
2018-08-04T11:29:42.422Z,36.66
2018-08-04T11:32:10.223Z,35.57
2018-08-04T11:34:38.070Z,34.67
2018-08-04T11:37:06.015Z,34.91
2018-08-04T11:39:34.130Z,34.75
2018-08-04T11:42:01.977Z,34.37
2018-08-04T11:44:29.826Z,35.41
2018-08-04T11:46:57.629Z,35.51
2018-08-04T11:49:25.446Z,35.33
2018-08-04T11:51:53.313Z,35.94
2018-08-04T11:54:21.165Z,37.42
2018-08-04T11:56:49.079Z,36.72
2018-08-04T11:59:16.858Z,35.62
2018-08-04T12:01:44.694Z,36.52
2018-08-04T12:04:12.482Z,36.58
2018-08-04T12:06:40.328Z,35.87
2018-08-04T12:09:10.676Z,36.67
2018-08-04T12:11:38.536Z,38.05
2018-08-04T12:14:06.859Z,36.72
2018-08-04T12:16:34.733Z,36.65
2018-08-04T12:19:02.568Z,36.66
2018-08-04T12:21:30.419Z,36.91
2018-08-04T12:23:58.253Z,37.27
2018-08-04T12:26:26.182Z,37.25
2018-08-04T12:28:53.998Z,35.48
2018-08-04T12:31:21.863Z,34.02
2018-08-04T12:33:49.680Z,34.85
2018-08-04T12:36:17.829Z,35.34
2018-08-04T12:38:46.270Z,34.49
2018-08-04T12:41:14.123Z,34.81
2018-08-04T12:43:41.977Z,35.80
2018-08-04T12:46:09.772Z,35.72
2018-08-04T12:48:37.606Z,35.38
2018-08-04T12:51:05.511Z,35.21
2018-08-04T12:53:33.334Z,35.63
2018-08-04T12:56:01.269Z,35.36
2018-08-04T12:58:29.053Z,36.39
2018-08-04T13:00:56.941Z,36.25
2018-08-04T13:03:24.750Z,35.81
2018-08-04T13:05:52.607Z,35.12
2018-08-04T13:08:20.527Z,34.59
2018-08-04T13:10:49.255Z,34.24
2018-08-04T13:13:17.155Z,34.27
2018-08-04T13:15:45.026Z,34.76
2018-08-04T13:18:12.976Z,35.26
2018-08-04T13:20:40.816Z,34.23
2018-08-04T13:23:08.709Z,33.83
2018-08-04T13:25:36.557Z,32.84
2018-08-04T13:28:04.454Z,32.97
2018-08-04T13:30:32.597Z,33.67
2018-08-04T13:33:00.447Z,34.27
2018-08-04T13:35:28.314Z,34.25
2018-08-04T13:37:56.100Z,33.45
2018-08-04T13:40:23.909Z,33.71
2018-08-04T13:42:51.757Z,34.03
2018-08-04T13:45:19.547Z,34.37
2018-08-04T13:47:47.580Z,34.48
2018-08-04T13:50:15.457Z,34.00
2018-08-04T13:52:43.541Z,34.25
2018-08-04T13:55:11.454Z,33.67
2018-08-04T13:57:39.277Z,34.34
2018-08-04T14:00:07.783Z,34.06
2018-08-04T14:02:35.661Z,34.34
2018-08-04T14:05:03.903Z,34.24
2018-08-04T14:07:31.700Z,34.12
2018-08-04T14:09:59.505Z,34.48
2018-08-04T14:12:27.389Z,34.36
2018-08-04T14:14:55.306Z,34.63
2018-08-04T14:17:23.418Z,34.35
2018-08-04T14:19:51.237Z,34.75
2018-08-04T14:22:19.057Z,34.42
2018-08-04T14:24:46.862Z,34.06
2018-08-04T14:27:14.653Z,33.74
2018-08-04T14:29:42.482Z,33.30
2018-08-04T14:32:10.245Z,33.59
2018-08-04T14:34:38.047Z,33.77
2018-08-04T14:37:06.837Z,33.69
2018-08-04T14:39:34.654Z,33.72
2018-08-04T14:42:02.543Z,33.18
2018-08-04T14:44:30.432Z,32.93
2018-08-04T14:46:58.241Z,33.00
2018-08-04T14:49:26.062Z,32.90
2018-08-04T14:51:53.951Z,32.89
2018-08-04T14:54:21.790Z,33.32
2018-08-04T14:56:49.583Z,33.44
2018-08-04T14:59:17.384Z,33.27
2018-08-04T15:01:45.221Z,32.96
2018-08-04T15:04:13.396Z,32.71
2018-08-04T15:06:41.594Z,33.47
2018-08-04T15:09:10.861Z,33.89
2018-08-04T15:11:39.253Z,34.36
2018-08-04T15:14:07.165Z,34.37
2018-08-04T15:16:34.973Z,34.41
2018-08-04T15:19:02.950Z,34.87
2018-08-04T15:21:30.833Z,34.98
2018-08-04T15:23:58.728Z,34.42
2018-08-04T15:26:26.537Z,34.25
2018-08-04T15:28:54.343Z,34.51
2018-08-04T15:31:22.162Z,32.96
2018-08-04T15:33:50.150Z,32.92
2018-08-04T15:36:17.961Z,32.71
2018-08-04T15:38:45.806Z,32.95
2018-08-04T15:41:13.609Z,32.73
2018-08-04T15:43:41.414Z,33.13
2018-08-04T15:46:09.241Z,33.34
2018-08-04T15:48:37.046Z,33.27
2018-08-04T15:51:04.868Z,33.33
2018-08-04T15:53:32.713Z,33.67
2018-08-04T15:56:00.516Z,33.19
2018-08-04T15:58:28.375Z,33.12
2018-08-04T16:00:56.326Z,33.23
2018-08-04T16:03:24.137Z,33.54
2018-08-04T16:05:52.273Z,33.90
2018-08-04T16:08:20.298Z,34.26
2018-08-04T16:10:48.642Z,34.27
2018-08-04T16:13:16.443Z,33.88
2018-08-04T16:15:44.314Z,33.81
2018-08-04T16:18:12.376Z,33.57
2018-08-04T16:20:40.307Z,33.11
2018-08-04T16:23:08.155Z,33.08
2018-08-04T16:25:35.998Z,32.70
2018-08-04T16:28:03.975Z,32.70
2018-08-04T16:30:31.823Z,32.13
2018-08-04T16:32:59.657Z,32.20
2018-08-04T16:35:27.497Z,32.08
2018-08-04T16:37:55.387Z,32.08
2018-08-04T16:40:24.205Z,31.92
2018-08-04T16:42:52.017Z,32.04
2018-08-04T16:45:19.837Z,32.25
2018-08-04T16:47:47.677Z,32.28
2018-08-04T16:50:15.507Z,32.19
2018-08-04T16:52:43.423Z,31.92
2018-08-04T16:55:11.253Z,31.50
2018-08-04T16:57:39.075Z,31.14
2018-08-04T17:00:07.343Z,31.06
2018-08-04T17:02:35.239Z,30.29
2018-08-04T17:05:03.112Z,29.85
2018-08-04T17:07:30.973Z,29.70
2018-08-04T17:09:58.774Z,29.49
2018-08-04T17:12:26.595Z,29.31
2018-08-04T17:14:54.490Z,29.22
2018-08-04T17:17:22.316Z,29.13
2018-08-04T17:19:50.233Z,28.96
2018-08-04T17:22:18.096Z,28.58
2018-08-04T17:24:45.936Z,28.65
2018-08-04T17:27:14.069Z,28.56
2018-08-04T17:29:41.962Z,28.32
2018-08-04T17:32:09.774Z,28.12
2018-08-04T17:34:37.619Z,28.28
2018-08-04T17:37:05.570Z,28.40
2018-08-04T17:39:33.341Z,28.30
2018-08-04T17:42:01.154Z,28.18
2018-08-04T17:44:29.021Z,27.90
2018-08-04T17:46:56.772Z,27.98
2018-08-04T17:49:24.581Z,27.93
2018-08-04T17:51:52.374Z,27.85
2018-08-04T17:54:20.168Z,27.60
2018-08-04T17:56:47.989Z,27.58
2018-08-04T17:59:15.776Z,27.53
2018-08-04T18:01:43.625Z,27.47
2018-08-04T18:04:11.569Z,27.54
2018-08-04T18:06:39.610Z,27.35
2018-08-04T18:09:08.566Z,27.19
2018-08-04T18:11:36.758Z,27.25
2018-08-04T18:14:04.944Z,27.34
2018-08-04T18:16:32.780Z,27.29
2018-08-04T18:19:00.712Z,27.31
2018-08-04T18:21:28.549Z,27.35
2018-08-04T18:23:56.425Z,27.25
2018-08-04T18:26:24.263Z,27.23
2018-08-04T18:28:52.147Z,27.19
2018-08-04T18:31:20.010Z,27.16
2018-08-04T18:33:47.831Z,27.05
2018-08-04T18:36:15.649Z,27.01
2018-08-04T18:38:43.446Z,27.03
2018-08-04T18:41:11.281Z,27.04
2018-08-04T18:43:39.100Z,27.00
2018-08-04T18:46:07.030Z,26.89
2018-08-04T18:48:34.826Z,26.93
2018-08-04T18:51:02.646Z,26.95
2018-08-04T18:53:30.532Z,26.98
2018-08-04T18:55:58.411Z,27.01
2018-08-04T18:58:26.294Z,26.93
2018-08-04T19:00:54.344Z,26.92
2018-08-04T19:03:22.416Z,26.89
2018-08-04T19:05:50.409Z,26.83
2018-08-04T19:08:18.313Z,26.75
2018-08-04T19:10:46.286Z,26.68
2018-08-04T19:13:14.529Z,26.55
2018-08-04T19:15:42.475Z,26.45
2018-08-04T19:18:10.366Z,26.41
2018-08-04T19:20:38.215Z,26.45
2018-08-04T19:23:06.153Z,26.23
2018-08-04T19:25:33.994Z,26.20
2018-08-04T19:28:01.823Z,26.12
2018-08-04T19:30:29.643Z,25.84
2018-08-04T19:32:57.511Z,25.86
2018-08-04T19:35:25.416Z,25.84
2018-08-04T19:37:54.226Z,25.79
2018-08-04T19:40:22.081Z,25.75
2018-08-04T19:42:49.908Z,25.51
2018-08-04T19:45:17.729Z,25.31
2018-08-04T19:47:46.074Z,25.28
2018-08-04T19:50:13.881Z,25.26
2018-08-04T19:52:42.080Z,24.99
2018-08-04T19:55:09.882Z,25.20
2018-08-04T19:57:39.200Z,25.31
2018-08-04T20:00:07.749Z,25.44
2018-08-04T20:02:36.200Z,25.35
2018-08-04T20:05:04.515Z,25.29
2018-08-04T20:07:32.334Z,25.36
2018-08-04T20:10:00.154Z,25.41
2018-08-04T20:12:28.070Z,25.40
2018-08-04T20:14:55.966Z,25.34
2018-08-04T20:17:23.830Z,25.26
2018-08-04T20:19:51.678Z,25.23
2018-08-04T20:22:19.557Z,25.30
2018-08-04T20:24:47.457Z,25.38
2018-08-04T20:27:15.293Z,25.38
2018-08-04T20:29:44.508Z,25.38
2018-08-04T20:32:12.361Z,25.42
2018-08-04T20:34:40.240Z,25.43
2018-08-04T20:37:10.191Z,25.44
2018-08-04T20:39:38.043Z,25.49
2018-08-04T20:42:06.231Z,25.52
2018-08-04T20:44:34.101Z,25.44
2018-08-04T20:47:01.898Z,25.42
2018-08-04T20:49:29.709Z,25.45
2018-08-04T20:51:57.538Z,25.47
2018-08-04T20:54:25.394Z,25.37
2018-08-04T20:56:53.227Z,25.27
2018-08-04T20:59:21.054Z,25.18
2018-08-04T21:02:05.151Z,25.08
2018-08-04T21:04:34.037Z,24.99
2018-08-04T21:07:02.617Z,24.80
2018-08-04T21:09:30.473Z,24.69
2018-08-04T21:11:58.329Z,24.65
2018-08-04T21:14:27.161Z,24.79
2018-08-04T21:16:56.055Z,24.84
2018-08-04T21:19:24.499Z,24.83
2018-08-04T21:21:52.375Z,24.38
2018-08-04T21:24:22.350Z,24.34
2018-08-04T21:26:51.225Z,24.44
2018-08-04T21:29:19.083Z,24.39
2018-08-04T21:31:47.025Z,24.26
2018-08-04T21:34:14.866Z,24.08
2018-08-04T21:36:43.393Z,24.01
2018-08-04T21:39:13.314Z,24.07
2018-08-04T21:41:41.849Z,23.99
2018-08-04T21:44:09.754Z,23.76
2018-08-04T21:46:43.935Z,23.96
2018-08-04T21:49:11.840Z,24.00
2018-08-04T21:51:41.097Z,24.08
2018-08-04T21:54:09.354Z,24.26
2018-08-04T21:56:37.199Z,24.37
2018-08-04T21:59:05.148Z,24.58
2018-08-04T22:01:33.065Z,24.64
2018-08-04T22:04:00.940Z,24.71
2018-08-04T22:08:41.551Z,24.83
2018-08-04T22:11:09.359Z,24.90
2018-08-04T22:13:37.149Z,24.80
2018-08-04T22:16:05.100Z,24.64
2018-08-04T22:18:32.877Z,24.59
2018-08-04T22:21:00.706Z,24.44
2018-08-04T22:23:28.533Z,24.38
2018-08-04T22:25:56.336Z,24.26
2018-08-04T22:28:24.155Z,24.19
2018-08-04T22:30:51.951Z,24.11
2018-08-04T22:33:19.771Z,24.04
2018-08-04T22:35:47.696Z,23.81
2018-08-04T22:38:15.477Z,23.73
2018-08-04T22:40:43.322Z,23.36
2018-08-04T22:43:11.085Z,23.25
2018-08-04T22:45:57.440Z,23.03
2018-08-04T22:48:25.270Z,23.17
2018-08-04T22:50:53.061Z,23.21
2018-08-04T22:53:20.870Z,23.10
2018-08-04T22:55:48.745Z,22.96
2018-08-04T22:58:16.557Z,23.12
2018-08-04T23:00:44.737Z,23.12
2018-08-04T23:03:13.115Z,23.30
2018-08-04T23:05:40.990Z,23.34
2018-08-04T23:08:09.561Z,23.45
2018-08-04T23:10:38.076Z,23.55
2018-08-04T23:13:05.914Z,23.65
2018-08-04T23:15:33.797Z,23.74
2018-08-04T23:18:01.615Z,23.80
2018-08-04T23:20:29.560Z,23.83
2018-08-04T23:22:57.777Z,23.83
2018-08-04T23:25:25.566Z,23.74
2018-08-04T23:27:53.347Z,23.81
2018-08-04T23:30:21.486Z,23.87
2018-08-04T23:32:50.061Z,23.93
2018-08-04T23:35:17.845Z,23.83
2018-08-04T23:37:45.757Z,23.78
2018-08-04T23:40:13.585Z,23.72
2018-08-04T23:42:41.750Z,23.71
2018-08-04T23:45:09.583Z,23.84
2018-08-04T23:47:37.370Z,23.90
2018-08-04T23:50:05.281Z,23.72
2018-08-04T23:52:33.101Z,23.63
2018-08-04T23:55:00.881Z,23.70
2018-08-04T23:57:28.942Z,23.64
2018-08-04T23:59:56.810Z,23.66
